Vremea acum in Timisoara - Romania

Vrei sa afli care e starea vremii acum in Timis - Romania? Dorim sa iti furnizam starea vremii pentru Timis - Romania. Starea vremii Timis - Romania pentru astazi.

Vremea acum in Timisoara

Temperatura: 31 °C

Se simte ca: 32.4 °C
Innorat: 25 %
Precipitatii: 0 %
Presiune atmosferica: 1022 hPa
Umiditate: 46%
Vizibilitate: 10 km
Vantul bate din S cu 0 km/h

Evolutia vremii in Timisoara pe ore

Ora: 13:00
Parțial noros
Temperatura: 32.8°C
Sansa de precipitatii: 0%
Ora Descriere Temp Se simte Precipitatii Umiditate Vant
00:00Parțial noros24.6°27.2°0%81%ENE 6.1 KM/H
01:00Parțial noros22.4°23.8°0%82%ENE 7.6 KM/H
02:00Parțial noros20.3°20.3°0%82%ENE 8.6 KM/H
03:00Parțial noros19.9°19.9°0%83%ENE 7.6 KM/H
04:00Parțial noros19.6°19.6°0%84%ENE 6.8 KM/H
05:00Parțial noros19.2°19.2°0%84%ENE 5.8 KM/H
06:00Parțial noros20.5°20.5°0%78%ENE 6.5 KM/H
07:00Parțial noros21.8°21.8°0%72%E 7.6 KM/H
08:00Parțial noros23.1°25°0%65%E 8.3 KM/H
09:00Parțial noros25.6°26.9°0%56%ESE 6.1 KM/H
10:00Parțial noros28.2°28.8°0%47%SSE 4.3 KM/H
11:00Parțial noros30.7°30.7°0%38%S 2.2 KM/H
12:00Parțial noros31.8°31.7°0%35%SW 2.9 KM/H
13:00Parțial noros32.8°32.8°0%33%WNW 4 KM/H
14:00Parțial noros33.9°33.8°0%30%NNW 4.7 KM/H
15:00Parțial noros34°33.6°0%29%SW 6.1 KM/H
16:00Parțial noros34°33.5°0%28%ESE 7.2 KM/H
17:00Parțial noros34.1°33.3°0%26%N 8.6 KM/H
18:00Parțial noros33.4°33.6°0%32%N 10.1 KM/H
19:00Parțial noros32.8°33.8°0%38%N 11.5 KM/H
20:00Parțial noros32.1°34.1°0%43%N 13 KM/H
21:00Parțial noros31.1°33.8°0%45%NNE 11.5 KM/H
22:00Parțial noros30.1°33.4°0%48%NE 10.4 KM/H
23:00Parțial noros29.1°33.1°0%50%ENE 9 KM/H